createdAt,value
2023-02-08T00:01:48.466Z,87.39
2023-02-08T00:04:14.880Z,87.20
2023-02-08T00:06:41.682Z,87.19
2023-02-08T00:09:09.014Z,86.83
2023-02-08T00:11:35.434Z,86.67
2023-02-08T00:14:01.912Z,87.02
2023-02-08T00:16:29.204Z,87.49
2023-02-08T00:18:56.314Z,88.10
2023-02-08T00:21:22.840Z,87.29
2023-02-08T00:23:49.980Z,87.21
2023-02-08T00:26:17.680Z,87.17
2023-02-08T00:28:50.379Z,87.39
2023-02-08T00:31:17.398Z,87.54
2023-02-08T00:33:44.212Z,88.27
2023-02-08T00:36:11.788Z,88.34
2023-02-08T00:38:38.484Z,87.50
2023-02-08T00:41:05.828Z,88.19
2023-02-08T00:43:33.923Z,87.93
2023-02-08T00:46:00.792Z,89.20
2023-02-08T00:48:28.439Z,88.79
2023-02-08T00:51:09.726Z,88.67
2023-02-08T00:53:37.928Z,89.24
2023-02-08T00:56:05.544Z,89.13
2023-02-08T00:58:32.215Z,89.26
2023-02-08T01:00:59.363Z,88.72
2023-02-08T01:03:25.998Z,89.56
2023-02-08T01:05:54.265Z,89.32
2023-02-08T01:08:21.543Z,89.05
2023-02-08T01:10:49.549Z,89.63
2023-02-08T01:13:16.476Z,89.28
2023-02-08T01:15:43.607Z,88.43
2023-02-08T01:18:10.884Z,89.04
2023-02-08T01:20:37.734Z,89.17
2023-02-08T01:23:04.784Z,88.88
2023-02-08T01:25:32.443Z,89.51
2023-02-08T01:27:59.283Z,90.47
2023-02-08T01:30:26.920Z,89.56
2023-02-08T01:32:53.473Z,88.80
2023-02-08T01:35:19.904Z,89.10
2023-02-08T01:37:46.595Z,88.87
2023-02-08T01:40:14.029Z,88.87
2023-02-08T01:42:40.412Z,88.46
2023-02-08T01:45:25.568Z,88.58
2023-02-08T01:48:03.405Z,88.57
2023-02-08T01:50:39.685Z,88.50
2023-02-08T01:53:08.376Z,88.46
2023-02-08T01:55:39.719Z,88.61
2023-02-08T01:58:09.110Z,89.44
2023-02-08T02:00:35.522Z,88.82
2023-02-08T02:03:04.781Z,89.21
2023-02-08T02:05:39.958Z,88.76
2023-02-08T02:08:07.905Z,88.82
2023-02-08T02:10:36.495Z,88.93
2023-02-08T02:13:07.298Z,89.59
2023-02-08T02:15:34.167Z,88.97
2023-02-08T02:18:02.385Z,89.81
2023-02-08T02:20:39.607Z,88.71
2023-02-08T02:23:28.072Z,89.03
2023-02-08T02:26:16.894Z,88.41
2023-02-08T02:29:13.067Z,88.88
2023-02-08T02:31:54.893Z,88.54
2023-02-08T02:34:46.336Z,89.03
2023-02-08T02:37:37.786Z,88.76
2023-02-08T02:40:43.493Z,89.12
2023-02-08T02:43:33.469Z,89.03
2023-02-08T02:46:28.721Z,89.51
2023-02-08T02:49:15.191Z,90.15
2023-02-08T02:51:58.508Z,89.36
2023-02-08T02:54:49.687Z,90.68
2023-02-08T02:57:20.336Z,90.36
2023-02-08T02:59:47.148Z,89.78
2023-02-08T03:02:14.111Z,89.76
2023-02-08T03:04:40.712Z,89.99
2023-02-08T03:07:19.603Z,89.96
2023-02-08T03:10:04.897Z,89.57
2023-02-08T03:13:09.137Z,89.51
2023-02-08T03:15:54.352Z,89.47
2023-02-08T03:18:48.044Z,89.54
2023-02-08T03:21:38.487Z,89.06
2023-02-08T03:24:23.221Z,89.53
2023-02-08T03:26:58.652Z,89.42
2023-02-08T03:29:49.246Z,88.92
2023-02-08T03:32:39.087Z,89.29
2023-02-08T03:35:10.704Z,89.38
2023-02-08T03:37:44.411Z,88.41
2023-02-08T03:40:18.731Z,88.91
2023-02-08T03:42:46.712Z,89.23
2023-02-08T03:45:36.512Z,88.52
2023-02-08T03:48:05.279Z,88.32
2023-02-08T03:50:34.749Z,88.28
2023-02-08T03:53:02.125Z,88.73
2023-02-08T03:55:31.464Z,89.02
2023-02-08T03:58:06.301Z,88.66
2023-02-08T04:00:37.090Z,88.29
2023-02-08T04:03:12.388Z,88.55
2023-02-08T04:05:38.882Z,88.74
2023-02-08T04:08:05.484Z,88.88
2023-02-08T04:10:31.939Z,88.89
2023-02-08T04:12:58.797Z,88.70
2023-02-08T04:15:27.525Z,88.34
2023-02-08T04:17:55.062Z,87.99
2023-02-08T04:20:21.718Z,87.36
2023-02-08T04:22:48.459Z,87.87
2023-02-08T04:25:15.046Z,88.59
2023-02-08T04:27:41.551Z,88.59
2023-02-08T04:30:08.570Z,88.21
2023-02-08T04:32:35.037Z,87.96
2023-02-08T04:35:01.480Z,88.38
2023-02-08T04:37:28.169Z,88.40
2023-02-08T04:39:54.573Z,89.30
2023-02-08T04:42:21.237Z,88.90
2023-02-08T04:44:48.033Z,88.57
2023-02-08T04:47:14.366Z,88.47
2023-02-08T04:49:41.051Z,88.45
2023-02-08T04:52:07.506Z,89.02
2023-02-08T04:54:34.170Z,89.37
2023-02-08T04:57:05.851Z,89.36
2023-02-08T04:59:32.453Z,88.57
2023-02-08T05:01:59.038Z,88.79
2023-02-08T05:04:25.465Z,89.61
2023-02-08T05:06:51.913Z,88.69
2023-02-08T05:09:19.400Z,88.26
2023-02-08T05:11:45.838Z,88.03
2023-02-08T05:14:12.279Z,88.33
2023-02-08T05:16:38.700Z,87.86
2023-02-08T05:19:05.173Z,87.76
2023-02-08T05:21:31.668Z,88.28
2023-02-08T05:23:58.117Z,87.56
2023-02-08T05:26:25.720Z,87.96
2023-02-08T05:28:52.226Z,87.96
2023-02-08T05:31:24.169Z,87.19
2023-02-08T05:33:51.850Z,87.62
2023-02-08T05:36:19.479Z,87.69
2023-02-08T05:38:45.923Z,88.05
2023-02-08T05:41:12.409Z,87.62
2023-02-08T05:43:39.052Z,87.19
2023-02-08T05:46:05.622Z,88.23
2023-02-08T05:48:32.283Z,88.38
2023-02-08T05:50:59.480Z,88.03
2023-02-08T05:53:26.176Z,87.96
2023-02-08T05:55:52.943Z,88.77
2023-02-08T05:58:19.532Z,88.23
2023-02-08T06:00:46.221Z,88.52
2023-02-08T06:03:12.812Z,88.63
2023-02-08T06:05:40.569Z,88.93
2023-02-08T06:08:07.358Z,89.17
2023-02-08T06:10:33.941Z,89.56
2023-02-08T06:13:01.534Z,88.66
2023-02-08T06:15:28.300Z,88.32
2023-02-08T06:17:59.147Z,88.96
2023-02-08T06:20:25.638Z,89.03
2023-02-08T06:22:52.117Z,88.60
2023-02-08T06:25:18.593Z,88.92
2023-02-08T06:27:45.400Z,88.70
2023-02-08T06:30:12.192Z,89.63
2023-02-08T06:32:38.950Z,89.90
2023-02-08T06:35:05.664Z,88.87
2023-02-08T06:37:32.095Z,89.23
2023-02-08T06:39:59.052Z,88.90
2023-02-08T06:42:28.969Z,88.51
2023-02-08T06:44:56.026Z,89.43
2023-02-08T06:47:23.262Z,89.25
2023-02-08T06:50:04.264Z,88.70
2023-02-08T06:52:30.965Z,88.66
2023-02-08T06:54:57.407Z,89.02
2023-02-08T06:57:24.325Z,88.70
2023-02-08T06:59:59.726Z,86.69
2023-02-08T07:02:26.470Z,85.70
2023-02-08T07:04:53.664Z,83.08
2023-02-08T07:07:20.186Z,80.23
2023-02-08T07:09:46.941Z,80.57
2023-02-08T07:12:13.459Z,83.54
2023-02-08T07:14:41.524Z,85.43
2023-02-08T07:17:08.037Z,77.30
2023-02-08T07:19:34.446Z,71.18
2023-02-08T07:22:07.247Z,72.93
2023-02-08T07:24:38.840Z,71.09
2023-02-08T07:27:06.958Z,72.51
2023-02-08T07:29:33.896Z,68.52
2023-02-08T07:32:01.491Z,69.42
2023-02-08T07:34:33.063Z,65.79
2023-02-08T07:36:59.510Z,66.58
2023-02-08T07:39:26.364Z,62.90
2023-02-08T07:41:53.218Z,64.87
2023-02-08T07:44:19.685Z,61.21
2023-02-08T07:46:46.198Z,66.70
2023-02-08T07:49:12.654Z,60.50
2023-02-08T07:51:39.065Z,62.22
2023-02-08T07:54:05.491Z,60.17
2023-02-08T07:56:32.083Z,56.12
2023-02-08T07:58:58.527Z,58.58
2023-02-08T08:01:25.030Z,50.78
2023-02-08T08:03:52.019Z,50.84
2023-02-08T08:06:19.889Z,51.69
2023-02-08T08:08:47.751Z,49.16
2023-02-08T08:11:15.453Z,50.07
2023-02-08T08:13:42.169Z,47.20
2023-02-08T08:16:08.841Z,47.18
2023-02-08T08:18:36.075Z,45.39
2023-02-08T08:21:03.165Z,47.62
2023-02-08T08:23:29.930Z,48.77
2023-02-08T08:25:56.432Z,50.36
2023-02-08T08:28:23.119Z,49.72
2023-02-08T08:30:49.764Z,52.25
2023-02-08T08:33:16.315Z,52.10
2023-02-08T08:35:43.895Z,52.39
2023-02-08T08:38:10.707Z,51.71
2023-02-08T08:40:37.369Z,53.74
2023-02-08T08:43:03.959Z,54.00
2023-02-08T08:45:30.371Z,54.61
2023-02-08T08:47:56.901Z,53.73
2023-02-08T08:50:23.453Z,53.23
2023-02-08T08:52:49.898Z,53.24
2023-02-08T08:55:16.617Z,51.62
2023-02-08T08:57:43.356Z,52.54
2023-02-08T09:00:10.835Z,52.79
2023-02-08T09:02:37.622Z,53.11
2023-02-08T09:05:05.496Z,53.84
2023-02-08T09:07:32.973Z,53.78
2023-02-08T09:09:59.416Z,53.26
2023-02-08T09:12:25.812Z,52.50
2023-02-08T09:14:52.347Z,51.05
2023-02-08T09:17:19.109Z,50.05
2023-02-08T09:19:47.227Z,50.78
2023-02-08T09:22:14.087Z,51.49
2023-02-08T09:24:40.848Z,51.97
2023-02-08T09:27:07.358Z,51.54
2023-02-08T09:29:34.396Z,52.86
2023-02-08T09:32:01.424Z,51.90
2023-02-08T09:34:28.016Z,50.05
2023-02-08T09:36:54.785Z,49.42
2023-02-08T09:39:23.785Z,50.55
2023-02-08T09:42:28.225Z,51.11
2023-02-08T09:45:07.137Z,50.58
2023-02-08T09:47:44.786Z,48.39
2023-02-08T09:50:19.830Z,49.24
2023-02-08T09:53:02.671Z,51.35
2023-02-08T09:55:39.775Z,51.24
2023-02-08T09:58:19.988Z,49.93
2023-02-08T10:00:48.837Z,49.48
2023-02-08T10:03:25.000Z,48.75
2023-02-08T10:05:51.442Z,48.11
2023-02-08T10:08:17.984Z,47.60
2023-02-08T10:10:55.557Z,48.44
2023-02-08T10:13:41.143Z,49.07
2023-02-08T10:16:17.581Z,48.06
2023-02-08T10:19:01.436Z,48.94
2023-02-08T10:21:38.549Z,48.43
2023-02-08T10:24:25.936Z,48.83
2023-02-08T10:27:11.237Z,47.58
2023-02-08T10:29:52.613Z,47.06
2023-02-08T10:32:35.606Z,49.29
2023-02-08T10:35:07.447Z,50.56
2023-02-08T10:37:35.513Z,50.37
2023-02-08T10:40:26.482Z,48.80
2023-02-08T10:43:19.623Z,48.00
2023-02-08T10:45:53.209Z,49.59
2023-02-08T10:48:50.019Z,48.56
2023-02-08T10:51:18.615Z,48.47
2023-02-08T10:53:45.612Z,47.39
2023-02-08T10:56:43.842Z,47.05
2023-02-08T10:59:16.694Z,48.68
2023-02-08T11:01:45.418Z,47.86
2023-02-08T11:04:12.885Z,47.36
2023-02-08T11:06:41.265Z,46.38
2023-02-08T11:09:23.441Z,46.02
2023-02-08T11:11:53.182Z,45.97
2023-02-08T11:14:47.155Z,47.22
2023-02-08T11:17:29.827Z,48.45
2023-02-08T11:19:56.999Z,45.43
2023-02-08T11:22:25.162Z,45.35
2023-02-08T11:24:57.718Z,44.71
2023-02-08T11:27:36.291Z,43.83
2023-02-08T11:30:24.161Z,43.87
2023-02-08T11:33:18.577Z,45.17
2023-02-08T11:35:53.968Z,45.29
2023-02-08T11:38:27.279Z,45.22
2023-02-08T11:40:56.750Z,46.41
2023-02-08T11:43:29.711Z,45.01
2023-02-08T11:45:57.910Z,43.18
2023-02-08T11:48:38.662Z,44.35
2023-02-08T11:51:05.858Z,44.51
2023-02-08T11:53:46.850Z,43.99
2023-02-08T11:56:25.434Z,43.57
2023-02-08T11:59:14.847Z,44.18
2023-02-08T12:01:42.292Z,45.20
2023-02-08T12:04:11.280Z,45.26
2023-02-08T12:06:56.623Z,46.42
2023-02-08T12:10:02.084Z,45.83
2023-02-08T12:13:07.101Z,45.31
2023-02-08T12:15:58.255Z,44.94
2023-02-08T12:18:38.433Z,46.16
2023-02-08T12:21:23.191Z,45.93
2023-02-08T12:24:03.388Z,45.43
2023-02-08T12:26:54.926Z,45.41
2023-02-08T12:29:47.802Z,46.14
2023-02-08T12:32:43.212Z,44.74
2023-02-08T12:36:01.560Z,45.04
2023-02-08T12:39:18.568Z,45.23
2023-02-08T12:42:14.771Z,46.57
2023-02-08T12:45:18.630Z,44.38
2023-02-08T12:48:10.059Z,45.65
2023-02-08T12:50:56.721Z,45.26
2023-02-08T12:53:40.335Z,44.10
2023-02-08T12:56:13.254Z,43.98
2023-02-08T12:58:48.158Z,43.99
2023-02-08T13:01:23.303Z,43.94
2023-02-08T13:04:12.187Z,45.51
2023-02-08T13:06:43.778Z,45.98
2023-02-08T13:09:36.371Z,45.42
2023-02-08T13:12:08.731Z,46.39
2023-02-08T13:14:39.133Z,45.29
2023-02-08T13:17:30.142Z,46.15
2023-02-08T13:20:05.702Z,46.03
2023-02-08T13:22:35.930Z,46.37
2023-02-08T13:25:07.980Z,46.68
2023-02-08T13:27:35.034Z,46.91
2023-02-08T13:30:01.836Z,46.95
2023-02-08T13:32:30.499Z,46.85
2023-02-08T13:35:01.343Z,46.77
2023-02-08T13:37:31.702Z,46.79
2023-02-08T13:40:01.360Z,46.36
2023-02-08T13:42:38.262Z,46.87
2023-02-08T13:45:06.438Z,47.29
2023-02-08T13:47:42.687Z,47.21
2023-02-08T13:50:29.232Z,48.08
2023-02-08T13:52:56.108Z,47.69
2023-02-08T13:55:29.001Z,47.46
2023-02-08T13:57:57.863Z,46.89
2023-02-08T14:00:35.539Z,46.24
2023-02-08T14:03:20.700Z,47.82
2023-02-08T14:05:53.989Z,47.28
2023-02-08T14:08:30.634Z,47.99
2023-02-08T14:11:17.376Z,48.21
2023-02-08T14:13:52.472Z,47.33
2023-02-08T14:16:26.461Z,48.20
2023-02-08T14:18:54.835Z,47.82
2023-02-08T14:21:38.230Z,47.80
2023-02-08T14:24:17.394Z,47.34
2023-02-08T14:26:44.899Z,48.05
2023-02-08T14:29:21.700Z,48.15
2023-02-08T14:31:48.364Z,47.43
2023-02-08T14:34:35.637Z,47.68
2023-02-08T14:37:26.659Z,48.89
2023-02-08T14:40:21.286Z,48.84
2023-02-08T14:43:19.710Z,49.25
2023-02-08T14:45:48.681Z,49.37
2023-02-08T14:48:24.282Z,50.03
2023-02-08T14:50:54.076Z,49.63
2023-02-08T14:53:33.824Z,50.10
2023-02-08T14:56:13.644Z,49.57
2023-02-08T14:58:42.429Z,49.84
2023-02-08T15:01:27.636Z,50.62
2023-02-08T15:04:01.822Z,50.97
2023-02-08T15:06:34.799Z,50.44
2023-02-08T15:09:01.428Z,49.71
2023-02-08T15:11:33.427Z,50.22
2023-02-08T15:14:02.242Z,50.43
2023-02-08T15:16:35.592Z,51.44
2023-02-08T15:19:04.341Z,51.24
2023-02-08T15:21:32.409Z,52.14
2023-02-08T15:24:14.500Z,52.38
2023-02-08T15:26:53.480Z,52.57
2023-02-08T15:29:32.703Z,52.80
2023-02-08T15:32:02.303Z,53.20
2023-02-08T15:34:28.670Z,53.41
2023-02-08T15:36:56.469Z,54.16
2023-02-08T15:39:34.727Z,54.46
2023-02-08T15:42:02.220Z,54.19
2023-02-08T15:44:30.580Z,54.57
2023-02-08T15:47:02.965Z,54.84
2023-02-08T15:49:39.468Z,54.81
2023-02-08T15:52:06.651Z,55.13
2023-02-08T15:54:33.246Z,54.97
2023-02-08T15:57:07.872Z,55.64
2023-02-08T15:59:37.690Z,56.07
2023-02-08T16:02:21.026Z,56.48
2023-02-08T16:04:47.478Z,56.79
2023-02-08T16:07:27.317Z,56.69
2023-02-08T16:09:54.599Z,56.66
2023-02-08T16:12:23.265Z,57.26
2023-02-08T16:14:52.745Z,57.45
2023-02-08T16:17:33.354Z,57.12
2023-02-08T16:19:59.732Z,57.76
2023-02-08T16:22:31.055Z,57.90
2023-02-08T16:25:23.460Z,58.02
2023-02-08T16:27:49.917Z,57.75
2023-02-08T16:30:21.168Z,57.86
2023-02-08T16:32:48.613Z,58.12
2023-02-08T16:35:22.121Z,58.12
2023-02-08T16:37:54.563Z,58.01
2023-02-08T16:40:57.998Z,58.85
2023-02-08T16:43:29.732Z,59.19
2023-02-08T16:46:11.494Z,59.07
2023-02-08T16:48:52.981Z,58.86
2023-02-08T16:51:28.182Z,59.42
2023-02-08T16:53:56.785Z,59.30
2023-02-08T16:56:27.474Z,59.21
2023-02-08T16:58:53.931Z,59.99
2023-02-08T17:01:23.043Z,60.17
2023-02-08T17:03:50.298Z,59.99
2023-02-08T17:06:25.408Z,60.82
2023-02-08T17:08:52.113Z,60.85
2023-02-08T17:11:18.646Z,60.79
2023-02-08T17:13:45.305Z,61.27
2023-02-08T17:16:18.190Z,61.22
2023-02-08T17:18:49.287Z,61.73
2023-02-08T17:21:16.421Z,61.72
2023-02-08T17:23:43.955Z,61.49
2023-02-08T17:26:20.383Z,61.77
2023-02-08T17:28:46.771Z,62.46
2023-02-08T17:31:14.346Z,62.58
2023-02-08T17:33:41.380Z,62.19
2023-02-08T17:36:10.366Z,62.13
2023-02-08T17:38:40.323Z,62.19
2023-02-08T17:41:10.149Z,62.62
2023-02-08T17:43:37.477Z,63.06
2023-02-08T17:46:11.329Z,62.70
2023-02-08T17:48:37.726Z,63.45
2023-02-08T17:51:16.142Z,63.41
2023-02-08T17:53:43.859Z,63.29
2023-02-08T17:56:13.263Z,63.62
2023-02-08T17:58:40.865Z,63.91
2023-02-08T18:01:17.654Z,62.34
2023-02-08T18:03:45.234Z,62.96
2023-02-08T18:06:12.001Z,63.40
2023-02-08T18:08:39.181Z,64.05
2023-02-08T18:11:12.616Z,63.67
2023-02-08T18:13:41.813Z,63.99
2023-02-08T18:16:14.599Z,63.61
2023-02-08T18:18:41.061Z,64.46
2023-02-08T18:21:13.230Z,63.71
2023-02-08T18:23:40.163Z,64.29
2023-02-08T18:26:08.618Z,64.46
2023-02-08T18:28:35.180Z,65.16
2023-02-08T18:31:03.812Z,64.75
2023-02-08T18:33:30.665Z,64.71
2023-02-08T18:35:57.064Z,64.96
2023-02-08T18:38:23.648Z,65.47
2023-02-08T18:40:50.071Z,65.63
2023-02-08T18:43:17.881Z,65.08
2023-02-08T18:45:45.982Z,65.07
2023-02-08T18:48:12.736Z,65.24
2023-02-08T18:50:39.121Z,65.73
2023-02-08T18:53:05.504Z,64.67
2023-02-08T18:55:32.284Z,64.85
2023-02-08T18:57:58.608Z,64.79
2023-02-08T19:00:25.098Z,65.04
2023-02-08T19:02:51.851Z,64.70
2023-02-08T19:05:18.333Z,64.95
2023-02-08T19:07:46.575Z,65.05
2023-02-08T19:10:13.004Z,65.42
2023-02-08T19:12:39.693Z,64.90
2023-02-08T19:15:06.768Z,65.07
2023-02-08T19:17:33.485Z,65.06
2023-02-08T19:19:59.888Z,64.92
2023-02-08T19:22:26.453Z,64.46
2023-02-08T19:24:59.433Z,64.24
2023-02-08T19:27:27.110Z,63.91
2023-02-08T19:29:58.625Z,63.66
2023-02-08T19:32:25.063Z,63.76
2023-02-08T19:34:51.548Z,64.61
2023-02-08T19:37:19.036Z,64.55
2023-02-08T19:39:45.827Z,65.41
2023-02-08T19:42:12.385Z,64.52
2023-02-08T19:44:38.822Z,64.73
2023-02-08T19:47:06.014Z,64.51
2023-02-08T19:49:32.472Z,64.83
2023-02-08T19:51:59.011Z,64.71
2023-02-08T19:54:25.612Z,64.47
2023-02-08T19:56:54.705Z,64.79
2023-02-08T19:59:26.691Z,64.68
2023-02-08T20:01:55.352Z,65.00
2023-02-08T20:04:22.216Z,64.92
2023-02-08T20:06:51.299Z,65.15
2023-02-08T20:09:17.726Z,64.89
2023-02-08T20:11:56.316Z,64.89
2023-02-08T20:14:24.090Z,64.76
2023-02-08T20:16:50.565Z,64.25
2023-02-08T20:19:17.122Z,64.56
2023-02-08T20:21:45.306Z,63.78
2023-02-08T20:24:12.107Z,63.31
2023-02-08T20:26:49.908Z,63.63
2023-02-08T20:29:17.280Z,63.23
2023-02-08T20:31:47.464Z,62.85
2023-02-08T20:34:15.072Z,63.09
2023-02-08T20:37:04.464Z,62.54
2023-02-08T20:39:32.635Z,63.37
2023-02-08T20:41:59.310Z,62.71
2023-02-08T20:44:25.752Z,62.23
2023-02-08T20:46:54.572Z,62.13
2023-02-08T20:49:25.294Z,62.27
2023-02-08T20:51:53.642Z,62.57
2023-02-08T20:54:20.138Z,61.96
2023-02-08T20:56:46.570Z,61.88
2023-02-08T20:59:15.676Z,61.77
2023-02-08T21:01:44.044Z,62.12
2023-02-08T21:04:11.597Z,62.01
2023-02-08T21:06:38.491Z,62.07
2023-02-08T21:09:11.768Z,61.48
2023-02-08T21:11:38.327Z,61.74
2023-02-08T21:14:07.715Z,61.16
2023-02-08T21:16:34.214Z,61.04
2023-02-08T21:19:00.758Z,60.90
2023-02-08T21:21:29.430Z,60.54
2023-02-08T21:23:58.041Z,60.39
2023-02-08T21:26:25.389Z,60.24
2023-02-08T21:28:53.290Z,60.09
2023-02-08T21:31:22.045Z,59.96
2023-02-08T21:33:49.280Z,59.44
2023-02-08T21:36:19.010Z,59.53
2023-02-08T21:38:46.265Z,59.14
2023-02-08T21:41:24.803Z,58.24
2023-02-08T21:43:53.692Z,57.68
2023-02-08T21:46:20.568Z,57.61
2023-02-08T21:49:06.166Z,57.82
2023-02-08T21:51:51.627Z,58.13
2023-02-08T21:54:40.423Z,57.95
2023-02-08T21:57:15.927Z,56.61
2023-02-08T21:59:42.978Z,56.93
2023-02-08T22:02:23.010Z,56.63
2023-02-08T22:05:08.945Z,57.06
2023-02-08T22:07:44.446Z,56.72
2023-02-08T22:10:14.546Z,56.24
2023-02-08T22:12:42.098Z,56.26
2023-02-08T22:15:10.776Z,55.75
2023-02-08T22:17:37.172Z,56.18
2023-02-08T22:20:04.418Z,56.27
2023-02-08T22:22:31.543Z,56.08
2023-02-08T22:24:58.158Z,56.63
2023-02-08T22:27:24.618Z,56.32
2023-02-08T22:29:52.056Z,56.54
2023-02-08T22:32:18.504Z,56.99
2023-02-08T22:34:48.482Z,56.75
2023-02-08T22:37:16.160Z,56.99
2023-02-08T22:39:42.914Z,57.43
2023-02-08T22:42:13.245Z,57.29
2023-02-08T22:44:41.130Z,57.83
2023-02-08T22:47:08.545Z,58.05
2023-02-08T22:49:45.297Z,57.87
2023-02-08T22:52:12.154Z,57.42
2023-02-08T22:54:38.750Z,57.59
2023-02-08T22:57:06.275Z,57.27
2023-02-08T22:59:34.374Z,57.40
2023-02-08T23:02:01.712Z,57.62
2023-02-08T23:04:28.572Z,57.18
2023-02-08T23:06:55.863Z,57.60
2023-02-08T23:09:23.472Z,57.24
2023-02-08T23:11:49.946Z,57.99
2023-02-08T23:14:16.593Z,57.14
2023-02-08T23:16:43.085Z,57.54
2023-02-08T23:19:18.249Z,57.52
2023-02-08T23:21:44.994Z,57.59
2023-02-08T23:24:12.225Z,58.29
2023-02-08T23:26:39.097Z,58.11
2023-02-08T23:29:05.599Z,57.53
2023-02-08T23:31:32.196Z,58.12
2023-02-08T23:34:00.425Z,57.71
2023-02-08T23:36:27.097Z,57.38
2023-02-08T23:38:56.684Z,58.03
2023-02-08T23:41:24.142Z,57.96
2023-02-08T23:43:52.108Z,58.03
2023-02-08T23:46:21.908Z,58.25
2023-02-08T23:48:49.061Z,58.25
2023-02-08T23:51:17.448Z,58.11
2023-02-08T23:53:44.562Z,58.19
2023-02-08T23:56:18.106Z,58.09
2023-02-08T23:58:46.609Z,57.81
